Time;durP1;ratioP1;P1;durP2;ratioP2;P2;SDS_P1;SDS_P2;PMS_P1;PMS_P2;Temp;Humidity;BMP_temperature;BMP_pressure;BME280_temperature;BME280_humidity;BME280_pressure;Samples;Min_cycle;Max_cycle;Signal;HPM_P1;HPM_P2
2022/04/23 00:01:35;;;;;;;29.80;27.70;;;12.80;39.10;;;;;;5017312;28;20416;-85
2022/04/23 00:04:00;;;;;;;29.27;27.33;;;12.80;39.20;;;;;;5017697;28;20179;-86
2022/04/23 00:06:26;;;;;;;31.13;29.00;;;12.80;39.40;;;;;;5017245;28;20172;-85
2022/04/23 00:08:52;;;;;;;30.20;28.20;;;12.70;39.20;;;;;;5017675;28;20642;-85
2022/04/23 00:11:17;;;;;;;29.47;27.57;;;12.80;39.70;;;;;;5017861;28;20177;-86
2022/04/23 00:13:43;;;;;;;28.67;26.73;;;12.80;39.70;;;;;;5016936;28;20208;-86
2022/04/23 00:16:10;;;;;;;29.80;27.80;;;12.80;39.90;;;;;;5017256;28;20176;-86
2022/04/23 00:18:36;;;;;;;29.90;27.90;;;12.80;39.90;;;;;;5016744;28;20198;-86
2022/04/23 00:21:03;;;;;;;29.67;27.60;;;12.70;40.20;;;;;;5017223;28;20494;-87
2022/04/23 00:23:31;;;;;;;32.33;30.40;;;12.60;40.50;;;;;;5016867;28;20212;-86
2022/04/23 00:25:58;;;;;;;30.17;28.17;;;12.60;40.70;;;;;;5016733;28;20419;-86
2022/04/23 00:28:24;;;;;;;30.30;28.20;;;12.60;41.00;;;;;;5033761;28;20507;-86
2022/04/23 00:30:52;;;;;;;29.43;27.40;;;12.50;40.90;;;;;;5034556;28;20425;-86
2022/04/23 00:33:21;;;;;;;28.03;26.30;;;12.60;41.10;;;;;;5033220;28;20421;-86
2022/04/23 00:35:49;;;;;;;31.20;29.03;;;12.50;41.40;;;;;;5033206;28;20420;-86
2022/04/23 00:38:16;;;;;;;28.40;26.37;;;12.40;41.60;;;;;;5033132;28;20473;-86
2022/04/23 00:40:43;;;;;;;27.73;25.90;;;12.40;42.10;;;;;;5034484;28;20514;-86
2022/04/23 00:43:36;;;;;;;29.30;27.17;;;12.30;42.00;;;;;;5033101;28;20474;-86
2022/04/23 00:46:03;;;;;;;28.00;26.10;;;12.40;42.30;;;;;;5016626;28;20473;-86
2022/04/23 00:48:30;;;;;;;29.07;27.00;;;12.30;42.70;;;;;;5032977;28;20411;-85
2022/04/23 00:51:00;;;;;;;27.73;26.00;;;12.30;43.10;;;;;;5033219;28;20435;-86
2022/04/23 00:53:27;;;;;;;28.50;26.50;;;12.30;43.30;;;;;;5015629;28;20915;-86
2022/04/23 00:55:53;;;;;;;26.53;24.83;;;12.40;43.00;;;;;;5032853;28;20449;-86
2022/04/23 00:58:20;;;;;;;27.50;25.50;;;12.40;42.80;;;;;;5016325;28;20449;-85
2022/04/23 01:00:47;;;;;;;26.97;25.30;;;12.30;43.60;;;;;;5032666;28;20419;-85
2022/04/23 01:03:13;;;;;;;27.30;25.57;;;12.30;43.60;;;;;;5032724;28;20473;-85
2022/04/23 01:05:46;;;;;;;27.00;25.30;;;12.20;44.00;;;;;;5032541;28;20412;-86
2022/04/23 01:08:19;;;;;;;26.00;24.30;;;12.20;44.60;;;;;;5032869;28;20411;-86
2022/04/23 01:10:45;;;;;;;31.57;29.67;;;12.30;44.30;;;;;;5016449;28;20415;-86
2022/04/23 01:13:14;;;;;;;27.00;25.43;;;12.30;44.50;;;;;;5032906;28;20486;-86
2022/04/23 01:15:43;;;;;;;27.27;25.33;;;12.20;44.30;;;;;;5032381;28;20416;-87
2022/04/23 01:18:09;;;;;;;26.47;24.97;;;12.20;44.40;;;;;;5032390;28;20450;-86
2022/04/23 01:20:36;;;;;;;27.23;25.63;;;12.20;44.80;;;;;;5015954;28;20510;-86
2022/04/23 01:23:02;;;;;;;27.23;25.73;;;12.10;45.20;;;;;;5015769;28;20215;-86
2022/04/23 01:25:28;;;;;;;27.77;26.07;;;12.10;45.20;;;;;;5015850;28;20407;-87
2022/04/23 01:27:58;;;;;;;25.37;23.83;;;12.10;45.60;;;;;;5015773;28;20420;-86
2022/04/23 01:30:24;;;;;;;27.10;25.60;;;12.20;45.50;;;;;;5032897;28;20465;-86
2022/04/23 01:32:49;;;;;;;26.93;25.13;;;12.20;46.30;;;;;;5016705;28;20826;-76
2022/04/23 01:35:15;;;;;;;28.30;26.50;;;12.20;45.30;;;;;;5016580;28;20200;-77
2022/04/23 01:37:41;;;;;;;28.23;26.33;;;12.10;45.70;;;;;;5017078;28;20172;-86
2022/04/23 01:40:07;;;;;;;27.07;25.17;;;12.20;45.90;;;;;;5017480;28;20227;-78
2022/04/23 01:42:35;;;;;;;27.10;25.23;;;12.10;45.80;;;;;;5033998;28;20208;-77
2022/04/23 01:45:00;;;;;;;28.33;26.53;;;12.00;46.20;;;;;;5015222;28;20420;-77
2022/04/23 01:47:26;;;;;;;26.10;24.57;;;11.90;46.80;;;;;;5015615;28;20474;-76
2022/04/23 01:49:52;;;;;;;25.97;24.37;;;12.00;47.00;;;;;;5014997;28;20185;-76
2022/04/23 01:52:17;;;;;;;28.50;26.70;;;12.00;46.70;;;;;;5014907;28;20179;-76
2022/04/23 01:54:43;;;;;;;27.50;25.67;;;12.10;47.10;;;;;;5014730;28;20291;-76
2022/04/23 01:57:08;;;;;;;28.43;26.53;;;12.00;46.80;;;;;;5014882;28;20180;-76
2022/04/23 01:59:34;;;;;;;27.90;26.30;;;11.90;47.00;;;;;;5014784;28;20176;-76
2022/04/23 02:02:00;;;;;;;26.60;24.80;;;11.90;47.70;;;;;;5032925;28;20564;-77
2022/04/23 02:04:26;;;;;;;28.07;26.23;;;11.90;47.60;;;;;;5013063;28;20173;-76
2022/04/23 02:06:52;;;;;;;27.97;26.37;;;11.90;48.00;;;;;;5031208;28;20681;-77
2022/04/23 02:09:17;;;;;;;27.80;26.00;;;11.90;48.40;;;;;;5013935;28;20522;-77
2022/04/23 02:11:44;;;;;;;26.60;24.90;;;11.90;48.00;;;;;;5014700;28;20187;-77
2022/04/23 02:14:09;;;;;;;27.73;26.07;;;11.80;47.70;;;;;;5030534;28;20204;-77
2022/04/23 02:16:36;;;;;;;27.67;25.97;;;11.70;48.00;;;;;;5014358;28;20852;-77
2022/04/23 02:19:03;;;;;;;28.53;26.37;;;11.80;48.60;;;;;;5014249;28;20173;-77
2022/04/23 02:21:29;;;;;;;28.67;26.70;;;11.80;48.60;;;;;;5030453;28;20423;-77
2022/04/23 02:23:55;;;;;;;28.83;26.90;;;11.80;48.70;;;;;;5030581;28;20419;-77
2022/04/23 02:26:21;;;;;;;28.97;27.07;;;11.70;48.90;;;;;;5030875;28;20938;-77
2022/04/23 02:28:47;;;;;;;28.17;26.20;;;11.60;48.90;;;;;;5013986;28;20403;-77
2022/04/23 02:31:13;;;;;;;29.07;27.10;;;11.50;49.70;;;;;;5030510;28;20552;-77
2022/04/23 02:33:39;;;;;;;29.17;27.27;;;11.50;50.10;;;;;;5030255;28;20419;-77
2022/04/23 02:36:06;;;;;;;28.20;26.20;;;11.50;50.90;;;;;;5014586;28;20489;-77
2022/04/23 02:38:41;;;;;;;29.03;27.20;;;11.30;50.50;;;;;;5030929;28;20938;-77
2022/04/23 02:41:08;;;;;;;28.40;26.70;;;11.20;51.10;;;;;;5029853;28;20430;-77
2022/04/23 02:43:38;;;;;;;28.43;26.47;;;11.30;51.40;;;;;;5030023;28;20473;-77
2022/04/23 02:46:04;;;;;;;34.17;32.27;;;11.20;51.60;;;;;;5030151;28;20469;-77
2022/04/23 02:48:30;;;;;;;30.90;28.43;;;11.30;52.10;;;;;;5030298;28;20416;-77
2022/04/23 02:50:57;;;;;;;30.90;28.90;;;11.20;52.10;;;;;;5013844;28;20499;-77
2022/04/23 02:53:22;;;;;;;29.03;26.73;;;11.20;52.10;;;;;;5030255;28;20231;-77
2022/04/23 02:55:48;;;;;;;28.60;26.80;;;11.10;52.40;;;;;;5013524;28;20419;-77
2022/04/23 02:58:14;;;;;;;29.13;27.27;;;11.20;52.50;;;;;;5013787;28;20691;-77
2022/04/23 03:00:41;;;;;;;29.50;27.17;;;11.30;52.00;;;;;;5013483;28;20422;-76
2022/04/23 03:03:11;;;;;;;28.93;26.97;;;11.30;52.50;;;;;;5030114;28;20288;-76
2022/04/23 03:05:37;;;;;;;30.77;28.73;;;11.20;52.50;;;;;;5012730;28;20490;-77
2022/04/23 03:08:03;;;;;;;29.43;27.53;;;11.20;52.60;;;;;;5029838;28;20895;-77
2022/04/23 03:10:30;;;;;;;30.27;28.23;;;11.20;52.90;;;;;;5013627;28;20498;-78
2022/04/23 03:12:57;;;;;;;31.63;29.23;;;11.20;52.80;;;;;;5013580;28;20716;-77
2022/04/23 03:15:24;;;;;;;28.70;26.93;;;11.20;52.90;;;;;;5029964;28;20514;-78
2022/04/23 03:17:50;;;;;;;27.07;25.47;;;11.20;53.30;;;;;;5030339;28;20427;-77
2022/04/23 03:20:16;;;;;;;30.27;28.17;;;11.10;52.40;;;;;;5013648;28;20472;-77
2022/04/23 03:22:43;;;;;;;29.90;27.90;;;11.00;53.70;;;;;;5013996;28;20231;-77
2022/04/23 03:25:11;;;;;;;31.20;28.80;;;11.00;53.90;;;;;;5013921;28;20719;-77
2022/04/23 03:27:37;;;;;;;29.03;27.20;;;11.10;53.80;;;;;;5014045;28;20499;-78
2022/04/23 03:30:05;;;;;;;29.23;27.27;;;11.10;53.90;;;;;;5030345;28;20425;-78
2022/04/23 03:32:32;;;;;;;30.23;28.30;;;11.10;54.10;;;;;;5030595;28;20420;-78
2022/04/23 03:34:59;;;;;;;29.87;27.80;;;11.10;53.70;;;;;;5014366;28;20411;-77
2022/04/23 03:37:25;;;;;;;31.00;28.80;;;11.10;54.30;;;;;;5014161;28;20521;-77
2022/04/23 03:39:50;;;;;;;28.77;26.90;;;11.20;53.40;;;;;;5030717;28;20438;-77
2022/04/23 03:42:17;;;;;;;30.30;28.40;;;11.00;53.50;;;;;;5014082;28;20455;-76
2022/04/23 03:44:43;;;;;;;29.80;28.03;;;10.80;53.70;;;;;;5030406;28;20201;-77
2022/04/23 03:47:08;;;;;;;30.03;28.07;;;10.70;54.70;;;;;;5014125;28;20425;-76
2022/04/23 03:49:34;;;;;;;28.30;26.37;;;10.80;55.20;;;;;;5014375;28;20181;-76
2022/04/23 03:51:59;;;;;;;28.30;26.50;;;10.80;54.80;;;;;;5013938;28;20242;-76
2022/04/23 03:54:26;;;;;;;27.53;25.87;;;10.80;54.50;;;;;;5014070;28;20565;-77
2022/04/23 03:56:52;;;;;;;32.42;30.52;;;10.80;55.10;;;;;;5012906;28;20414;-76
2022/04/23 03:59:21;;;;;;;30.23;28.20;;;10.70;54.60;;;;;;5032120;28;20675;-77
2022/04/23 04:01:48;;;;;;;30.23;28.13;;;10.60;54.90;;;;;;5014283;28;20455;-77
2022/04/23 04:04:14;;;;;;;30.07;28.07;;;10.50;55.00;;;;;;5030783;28;20412;-78
2022/04/23 04:06:41;;;;;;;27.50;25.77;;;10.50;55.30;;;;;;5030812;28;20407;-77
2022/04/23 04:09:06;;;;;;;28.17;26.40;;;10.40;55.50;;;;;;5030798;28;20419;-77
2022/04/23 04:12:01;;;;;;;30.87;29.17;;;10.30;56.00;;;;;;5013964;28;20415;-77
2022/04/23 04:14:18;;;;;;;29.57;27.97;;;10.20;55.90;;;;;;5031577;28;20179;-77
2022/04/23 04:16:46;;;;;;;30.00;28.20;;;10.20;56.10;;;;;;5030435;28;20746;-78
2022/04/23 04:19:14;;;;;;;30.57;28.80;;;10.10;56.60;;;;;;5030424;28;20414;-77
2022/04/23 04:21:44;;;;;;;28.30;26.80;;;10.00;56.60;;;;;;5030382;28;20416;-78
2022/04/23 04:24:13;;;;;;;28.90;27.30;;;10.00;56.90;;;;;;5030140;28;20450;-78
2022/04/23 04:26:44;;;;;;;30.80;29.20;;;10.10;56.90;;;;;;5031942;28;20823;-77
2022/04/23 04:29:10;;;;;;;29.57;27.97;;;10.00;56.70;;;;;;5033389;28;20514;-77
2022/04/23 04:31:49;;;;;;;30.50;28.80;;;10.00;56.50;;;;;;5034181;28;20430;-77
2022/04/23 04:34:20;;;;;;;30.97;29.33;;;9.90;57.40;;;;;;5033799;28;20506;-77
2022/04/23 04:36:47;;;;;;;30.20;28.60;;;10.10;56.40;;;;;;5034104;28;20451;-77
2022/04/23 04:39:13;;;;;;;30.97;29.27;;;10.10;56.10;;;;;;5033487;28;20425;-77
2022/04/23 04:41:40;;;;;;;31.20;29.27;;;10.10;56.50;;;;;;5033146;28;20494;-77
2022/04/23 04:44:06;;;;;;;28.53;26.90;;;10.00;56.50;;;;;;5016409;28;20439;-77
2022/04/23 04:46:36;;;;;;;32.70;30.90;;;10.00;56.30;;;;;;5016607;28;20498;-79
2022/04/23 04:49:03;;;;;;;31.43;29.63;;;10.10;55.60;;;;;;5016925;28;20172;-77
2022/04/23 04:51:29;;;;;;;32.10;30.20;;;10.10;55.40;;;;;;5017306;28;20445;-77
2022/04/23 04:53:55;;;;;;;30.87;29.07;;;10.20;55.40;;;;;;5016795;28;20446;-76
2022/04/23 04:56:21;;;;;;;29.70;28.00;;;10.20;55.40;;;;;;5017054;28;20447;-75
2022/04/23 04:58:47;;;;;;;30.60;28.87;;;10.20;55.40;;;;;;5016544;28;20825;-76
2022/04/23 05:01:14;;;;;;;28.77;27.17;;;10.10;55.50;;;;;;5016626;28;20275;-76
2022/04/23 05:03:40;;;;;;;30.63;28.83;;;10.10;55.90;;;;;;5016189;28;20833;-76
2022/04/23 05:06:07;;;;;;;31.43;28.43;;;10.10;55.50;;;;;;5016456;28;20404;-76
2022/04/23 05:08:34;;;;;;;29.27;27.63;;;10.20;55.80;;;;;;5016178;28;20412;-76
2022/04/23 05:11:00;;;;;;;30.63;28.83;;;10.20;54.80;;;;;;5016592;28;20415;-76
2022/04/23 05:13:26;;;;;;;30.97;28.97;;;10.20;54.80;;;;;;5016244;28;20411;-76
2022/04/23 05:15:51;;;;;;;30.50;28.70;;;10.20;55.20;;;;;;5016644;28;20438;-76
2022/04/23 05:18:17;;;;;;;28.97;27.27;;;10.30;55.10;;;;;;5016474;28;20206;-76
2022/04/23 05:20:43;;;;;;;31.40;29.60;;;10.30;54.70;;;;;;5016155;28;20640;-77
2022/04/23 05:23:09;;;;;;;26.97;25.20;;;10.30;54.90;;;;;;5016267;28;20448;-77
2022/04/23 05:25:34;;;;;;;29.57;27.43;;;10.30;54.80;;;;;;5015909;28;20420;-77
2022/04/23 05:28:00;;;;;;;28.47;26.97;;;10.30;55.00;;;;;;5016259;28;20207;-77
2022/04/23 05:30:26;;;;;;;30.83;29.07;;;10.40;54.80;;;;;;5016023;28;20177;-76
2022/04/23 05:32:51;;;;;;;26.23;24.63;;;10.30;54.80;;;;;;5033874;28;20181;-77
2022/04/23 05:35:17;;;;;;;30.60;28.80;;;10.30;54.80;;;;;;5015746;28;20604;-76
2022/04/23 05:37:42;;;;;;;32.57;30.57;;;10.30;54.70;;;;;;5016229;28;20180;-77
2022/04/23 05:40:08;;;;;;;31.60;29.80;;;10.30;54.70;;;;;;5015677;28;20184;-77
2022/04/23 05:42:34;;;;;;;31.03;29.33;;;10.40;54.50;;;;;;5015860;28;20709;-78
2022/04/23 05:45:00;;;;;;;29.70;27.97;;;10.40;54.50;;;;;;5015647;28;20518;-77
2022/04/23 05:47:25;;;;;;;29.93;28.17;;;10.40;54.40;;;;;;5015818;28;20521;-76
2022/04/23 05:49:51;;;;;;;27.43;25.77;;;10.50;54.20;;;;;;5015574;28;20532;-76
2022/04/23 05:52:17;;;;;;;31.77;29.87;;;10.60;54.80;;;;;;5015833;28;20180;-76
2022/04/23 05:54:42;;;;;;;30.90;29.13;;;10.70;53.40;;;;;;5015806;28;20184;-76
2022/04/23 05:57:08;;;;;;;29.50;27.60;;;10.60;53.30;;;;;;5016053;28;20176;-76
2022/04/23 05:59:33;;;;;;;29.60;27.80;;;10.60;53.70;;;;;;5012261;28;20185;-77
2022/04/23 06:02:00;;;;;;;29.05;27.30;;;10.60;53.00;;;;;;4997087;28;20591;-76
2022/04/23 06:04:45;;;;;;;32.27;30.17;;;10.60;53.60;;;;;;4997423;28;20596;-76
2022/04/23 06:07:10;;;;;;;28.37;26.60;;;10.70;53.30;;;;;;4996719;28;20935;-77
2022/04/23 06:09:36;;;;;;;28.00;26.20;;;10.70;53.20;;;;;;4996274;28;20412;-76
2022/04/23 06:12:02;;;;;;;26.97;25.37;;;10.80;53.00;;;;;;4995904;28;20191;-78
2022/04/23 06:14:28;;;;;;;29.53;27.53;;;10.70;52.70;;;;;;4995496;28;20511;-77
2022/04/23 06:16:53;;;;;;;28.40;26.70;;;10.80;52.70;;;;;;5009001;28;20832;-76
2022/04/23 06:19:19;;;;;;;28.23;26.47;;;10.80;52.80;;;;;;5014610;28;20188;-77
2022/04/23 06:21:44;;;;;;;28.03;26.30;;;10.90;52.20;;;;;;5015041;28;20184;-77
2022/04/23 06:24:10;;;;;;;26.80;25.30;;;10.90;52.40;;;;;;5014065;28;20186;-77
2022/04/23 06:26:36;;;;;;;27.23;25.70;;;10.90;52.00;;;;;;5014591;28;20180;-86
2022/04/23 06:29:02;;;;;;;28.97;27.17;;;11.00;52.30;;;;;;5014780;28;20184;-86
2022/04/23 06:31:27;;;;;;;33.20;31.30;;;11.00;52.40;;;;;;5015416;28;20176;-85
2022/04/23 06:33:53;;;;;;;27.97;26.40;;;11.00;52.00;;;;;;5015133;28;20181;-86
2022/04/23 06:36:18;;;;;;;27.37;25.73;;;11.00;50.70;;;;;;5015531;28;20239;-86
2022/04/23 06:38:44;;;;;;;27.53;26.13;;;11.00;50.30;;;;;;5015546;28;20227;-87
2022/04/23 06:41:10;;;;;;;27.10;25.50;;;11.00;50.70;;;;;;5015872;28;20340;-86
2022/04/23 06:43:35;;;;;;;26.70;25.10;;;11.10;50.70;;;;;;5015476;28;20635;-86
2022/04/23 06:46:01;;;;;;;26.97;25.47;;;11.10;49.10;;;;;;5015915;28;20206;-86
2022/04/23 06:48:26;;;;;;;25.80;24.50;;;11.10;49.00;;;;;;5033496;28;20656;-86
2022/04/23 06:50:52;;;;;;;25.47;24.10;;;11.10;49.60;;;;;;5014803;28;20185;-85
2022/04/23 06:53:18;;;;;;;27.13;25.70;;;11.20;49.20;;;;;;5015535;28;20533;-86
2022/04/23 06:55:43;;;;;;;26.23;24.73;;;11.30;49.20;;;;;;5015358;28;20177;-86
2022/04/23 06:58:10;;;;;;;25.97;24.40;;;11.30;48.30;;;;;;5015161;28;20207;-86
2022/04/23 07:00:38;;;;;;;26.27;24.73;;;11.30;48.70;;;;;;5015577;28;20184;-86
2022/04/23 07:03:03;;;;;;;24.80;23.50;;;11.50;48.90;;;;;;5015085;28;20467;-85
2022/04/23 07:05:29;;;;;;;25.97;24.47;;;11.40;48.50;;;;;;5015444;28;20535;-83
2022/04/23 07:07:57;;;;;;;23.63;22.47;;;11.50;48.30;;;;;;5015220;28;20588;-83
2022/04/23 07:10:24;;;;;;;25.83;24.33;;;11.60;57.60;;;;;;5014837;28;20181;-82
2022/04/23 07:12:54;;;;;;;25.53;24.23;;;11.70;48.20;;;;;;5031360;28;20427;-82
2022/04/23 07:15:21;;;;;;;25.87;24.37;;;11.80;48.70;;;;;;5031431;28;20771;-84
2022/04/23 07:17:47;;;;;;;24.80;23.40;;;11.90;47.20;;;;;;5031414;28;20419;-81
2022/04/23 07:20:14;;;;;;;26.90;25.40;;;12.00;46.70;;;;;;5031435;28;20788;-86
2022/04/23 07:22:40;;;;;;;25.40;23.80;;;12.00;45.60;;;;;;5015111;28;20459;-86
2022/04/23 07:25:26;;;;;;;26.77;24.37;;;12.00;45.60;;;;;;5032364;28;20930;-86
2022/04/23 07:27:51;;;;;;;25.60;24.23;;;11.80;45.70;;;;;;5015178;28;20424;-85
2022/04/23 07:30:17;;;;;;;25.03;23.63;;;11.90;46.00;;;;;;5015253;28;20183;-85
2022/04/23 07:32:42;;;;;;;24.43;23.23;;;11.90;46.20;;;;;;5015225;28;20184;-85
2022/04/23 07:37:52;;;;;;;24.10;22.80;;;11.90;46.60;;;;;;5033127;28;20219;-87
2022/04/23 07:40:18;;;;;;;23.70;22.30;;;12.00;45.60;;;;;;5015165;28;20423;-86
2022/04/23 07:42:44;;;;;;;27.90;26.50;;;12.10;44.20;;;;;;5014780;28;20323;-86
2022/04/23 07:45:10;;;;;;;24.03;22.63;;;12.00;44.90;;;;;;5014875;28;20180;-86
2022/04/23 07:47:36;;;;;;;23.83;22.53;;;12.00;45.50;;;;;;5015413;28;20415;-85
2022/04/23 07:50:01;;;;;;;23.33;22.07;;;12.00;45.60;;;;;;5015007;28;20196;-87
2022/04/23 07:52:28;;;;;;;24.67;23.20;;;12.00;45.20;;;;;;5015362;28;20180;-86
2022/04/23 07:54:53;;;;;;;23.83;22.53;;;12.00;45.00;;;;;;5014545;28;20767;-85
2022/04/23 07:57:23;;;;;;;25.00;23.03;;;12.00;45.20;;;;;;5014455;28;20434;-86
2022/04/23 07:59:49;;;;;;;23.60;22.30;;;12.00;44.90;;;;;;5014381;28;20636;-86
2022/04/23 08:02:15;;;;;;;25.33;23.80;;;12.00;44.90;;;;;;5016017;28;20819;-86
2022/04/23 08:04:41;;;;;;;23.90;22.60;;;12.00;44.70;;;;;;5017807;28;20426;-86
2022/04/23 08:07:06;;;;;;;24.47;23.07;;;12.20;45.00;;;;;;5018169;28;20188;-86
2022/04/23 08:09:37;;;;;;;25.13;23.80;;;12.20;44.90;;;;;;5017763;28;20427;-86
2022/04/23 08:12:08;;;;;;;24.60;23.23;;;12.30;45.10;;;;;;5017869;28;20268;-86
2022/04/23 08:14:33;;;;;;;23.90;22.50;;;12.50;43.80;;;;;;5035909;28;20422;-87
2022/04/23 08:16:59;;;;;;;24.93;23.60;;;12.50;43.60;;;;;;5018405;28;20434;-85
2022/04/23 08:19:25;;;;;;;22.80;21.60;;;12.60;42.80;;;;;;5018026;28;20180;-87
2022/04/23 08:21:51;;;;;;;23.50;22.30;;;12.50;43.00;;;;;;5017992;28;20212;-86
2022/04/23 08:24:17;;;;;;;24.53;23.00;;;12.50;43.00;;;;;;5018150;28;20819;-87
2022/04/23 08:26:42;;;;;;;24.83;23.17;;;12.70;43.30;;;;;;5035802;28;20181;-86
2022/04/23 08:31:52;;;;;;;24.30;23.10;;;12.70;43.10;;;;;;5036645;28;20175;-87
2022/04/23 08:34:18;;;;;;;23.83;22.50;;;12.80;43.40;;;;;;5018506;28;20919;-87
2022/04/23 08:36:44;;;;;;;24.63;23.03;;;12.40;42.40;;;;;;5018365;28;20481;-85
2022/04/23 08:39:10;;;;;;;23.20;22.00;;;12.50;43.00;;;;;;5017699;28;20464;-87
2022/04/23 08:41:39;;;;;;;26.53;24.03;;;12.60;42.60;;;;;;5016754;28;20177;-86
2022/04/23 08:44:06;;;;;;;23.30;22.00;;;12.70;42.90;;;;;;5033163;28;20184;-77
2022/04/23 08:46:34;;;;;;;24.87;23.17;;;12.80;42.40;;;;;;5032871;28;20419;-78
2022/04/23 08:49:15;;;;;;;23.50;22.20;;;12.80;42.00;;;;;;5016467;28;20969;-78
2022/04/23 08:51:45;;;;;;;24.37;22.90;;;12.90;42.70;;;;;;5015621;28;20426;-77
2022/04/23 08:54:12;;;;;;;23.17;21.80;;;13.10;41.80;;;;;;5032710;28;20997;-76
2022/04/23 08:56:43;;;;;;;22.73;21.43;;;13.00;41.40;;;;;;5033306;28;20415;-76
2022/04/23 08:59:12;;;;;;;25.03;23.53;;;12.90;41.10;;;;;;5033523;28;20510;-77
2022/04/23 09:01:38;;;;;;;23.70;22.40;;;13.00;41.70;;;;;;5033948;28;20417;-77
2022/04/23 09:04:06;;;;;;;24.90;23.40;;;13.00;41.80;;;;;;5016322;28;20411;-77
2022/04/23 09:06:34;;;;;;;23.07;21.87;;;13.10;41.00;;;;;;5015911;28;20803;-78
2022/04/23 09:09:19;;;;;;;23.53;22.23;;;13.20;41.20;;;;;;5016071;28;20411;-77
2022/04/23 09:11:51;;;;;;;24.70;23.30;;;13.30;39.80;;;;;;5015751;28;20426;-78
2022/04/23 09:14:38;;;;;;;22.63;21.33;;;13.20;39.90;;;;;;5031518;28;20478;-78
2022/04/23 09:25:37;;;;;;;27.37;25.87;;;13.20;40.60;;;;;;5034291;28;20834;-77
2022/04/23 09:28:22;;;;;;;24.77;23.27;;;13.30;40.30;;;;;;5016107;28;20426;-78
2022/04/23 09:30:50;;;;;;;23.70;22.33;;;13.30;41.20;;;;;;5016155;28;20423;-77
2022/04/23 09:33:17;;;;;;;23.37;22.07;;;13.40;40.30;;;;;;5015941;28;20450;-77
2022/04/23 09:36:03;;;;;;;21.87;20.83;;;13.50;39.90;;;;;;5015966;28;20459;-76
2022/04/23 09:38:30;;;;;;;24.00;22.70;;;13.60;39.90;;;;;;5015906;28;20862;-77
2022/04/23 09:41:15;;;;;;;24.47;22.97;;;13.70;39.40;;;;;;5016183;28;20420;-76
2022/04/23 09:43:42;;;;;;;21.53;20.23;;;13.60;39.50;;;;;;5015459;28;20970;-77
2022/04/23 09:46:09;;;;;;;23.60;22.00;;;13.60;39.40;;;;;;5015881;28;20419;-76
2022/04/23 09:48:38;;;;;;;21.70;20.50;;;13.60;38.80;;;;;;5015632;28;20423;-77
2022/04/23 09:51:04;;;;;;;21.20;20.17;;;13.60;39.50;;;;;;5015797;28;20415;-78
2022/04/23 09:53:30;;;;;;;23.73;22.53;;;13.60;39.70;;;;;;5015436;28;20420;-78
2022/04/23 09:55:59;;;;;;;22.77;21.57;;;13.50;39.40;;;;;;5015786;28;20458;-76
2022/04/23 09:58:29;;;;;;;20.50;19.40;;;13.40;40.30;;;;;;5015832;28;20480;-78
2022/04/23 10:00:56;;;;;;;24.93;23.43;;;13.40;39.50;;;;;;5015699;28;20427;-78
2022/04/23 10:03:28;;;;;;;21.90;20.80;;;13.40;39.90;;;;;;5015403;28;20474;-78
2022/04/23 10:05:54;;;;;;;21.00;20.00;;;13.40;39.10;;;;;;5015600;28;20419;-78
2022/04/23 10:08:26;;;;;;;24.10;22.90;;;13.40;40.50;;;;;;5015790;28;20415;-78
2022/04/23 10:11:11;;;;;;;21.00;20.00;;;13.40;40.00;;;;;;5015107;28;20440;-78
2022/04/23 10:13:40;;;;;;;21.53;20.43;;;13.40;39.70;;;;;;5013478;28;20423;-78
2022/04/23 10:16:07;;;;;;;21.83;20.77;;;13.40;40.30;;;;;;5016176;28;20420;-78
2022/04/23 10:18:38;;;;;;;20.60;19.60;;;13.50;40.30;;;;;;5034629;28;20787;-82
2022/04/23 10:21:08;;;;;;;20.23;19.23;;;13.50;39.50;;;;;;5065228;22;20507;-77
2022/04/23 10:24:01;;;;;;;20.20;19.20;;;13.50;39.10;;;;;;5033115;28;20490;-85
2022/04/23 10:26:53;;;;;;;21.17;20.07;;;13.40;39.10;;;;;;5031667;28;20419;-86
2022/04/23 10:29:22;;;;;;;21.37;20.27;;;13.40;39.40;;;;;;5029401;28;20451;-86
2022/04/23 10:32:20;;;;;;;21.37;20.23;;;13.40;39.60;;;;;;5031065;28;20970;-86
2022/04/23 10:34:46;;;;;;;20.13;19.13;;;13.50;39.20;;;;;;5029660;28;20429;-86
2022/04/23 10:37:20;;;;;;;19.93;18.93;;;13.40;39.60;;;;;;5030886;28;20502;-86
2022/04/23 10:39:52;;;;;;;20.67;19.73;;;13.50;39.90;;;;;;5031020;28;20407;-86
2022/04/23 10:42:24;;;;;;;20.53;19.53;;;13.70;39.40;;;;;;5028424;28;20462;-77
2022/04/23 10:44:50;;;;;;;19.33;18.33;;;13.80;38.90;;;;;;5030516;28;20416;-77
2022/04/23 10:47:36;;;;;;;19.80;18.70;;;13.70;38.50;;;;;;5031034;28;20419;-77
2022/04/23 10:50:19;;;;;;;20.13;19.23;;;13.70;38.00;;;;;;5030829;28;20449;-76
2022/04/23 10:52:46;;;;;;;19.43;18.53;;;13.60;37.90;;;;;;5030842;28;20798;-77
2022/04/23 10:55:14;;;;;;;19.60;18.60;;;13.70;38.30;;;;;;5014655;28;20784;-77
2022/04/23 10:57:50;;;;;;;20.73;19.73;;;13.80;37.90;;;;;;5031259;28;20455;-77
2022/04/23 11:00:18;;;;;;;20.00;19.10;;;13.80;38.40;;;;;;5030907;28;20418;-77
2022/04/23 11:03:08;;;;;;;19.83;18.77;;;13.80;38.50;;;;;;5030961;28;21049;-77
2022/04/23 11:13:53;;;;;;;19.83;18.83;;;13.80;38.30;;;;;;5032125;28;20430;-76
2022/04/23 11:16:23;;;;;;;22.53;21.33;;;13.70;38.10;;;;;;5030897;28;20416;-76
2022/04/23 11:18:51;;;;;;;22.67;21.47;;;13.70;38.40;;;;;;5030878;28;20427;-76
2022/04/23 11:21:17;;;;;;;22.13;21.03;;;13.70;38.50;;;;;;5031956;28;20442;-77
2022/04/23 11:23:45;;;;;;;23.77;22.57;;;13.80;38.80;;;;;;5030178;28;21052;-77
2022/04/23 11:26:18;;;;;;;21.90;20.70;;;13.70;38.30;;;;;;5030790;28;20756;-77
2022/04/23 11:28:46;;;;;;;22.70;21.50;;;13.70;38.90;;;;;;5030664;28;20415;-78
2022/04/23 11:31:15;;;;;;;24.63;23.43;;;13.70;38.80;;;;;;5030790;28;20489;-76
2022/04/23 11:33:58;;;;;;;25.47;23.67;;;13.80;38.60;;;;;;5030457;28;20419;-76
2022/04/23 11:36:28;;;;;;;23.17;21.80;;;13.90;38.30;;;;;;5030939;28;20430;-76
2022/04/23 11:38:55;;;;;;;23.80;22.60;;;13.90;38.90;;;;;;5034739;28;20418;-76
2022/04/23 11:41:31;;;;;;;24.40;23.10;;;14.00;38.70;;;;;;5034193;28;20923;-76
2022/04/23 11:43:57;;;;;;;23.90;22.20;;;14.00;38.40;;;;;;5034331;28;20516;-76
2022/04/23 11:46:23;;;;;;;25.70;23.80;;;14.00;38.80;;;;;;5034809;28;20933;-77
2022/04/23 11:48:50;;;;;;;23.87;22.37;;;14.00;38.20;;;;;;5035063;28;20506;-77
2022/04/23 11:51:20;;;;;;;23.03;21.83;;;14.10;37.90;;;;;;5031761;28;20173;-79
2022/04/23 11:53:58;;;;;;;23.00;21.60;;;14.20;37.60;;;;;;5035121;28;20427;-85
2022/04/23 11:56:32;;;;;;;23.13;21.73;;;14.20;37.30;;;;;;5035089;28;20415;-86
2022/04/23 11:59:04;;;;;;;22.70;21.40;;;14.20;37.10;;;;;;5033976;28;20422;-85
2022/04/23 12:01:30;;;;;;;23.37;21.97;;;14.10;38.10;;;;;;5033428;28;20419;-86
2022/04/23 12:03:57;;;;;;;21.90;20.67;;;14.10;37.80;;;;;;5034376;28;20463;-85
2022/04/23 12:06:24;;;;;;;23.03;21.80;;;14.20;37.90;;;;;;5032639;28;20491;-85
2022/04/23 12:08:50;;;;;;;22.97;21.87;;;14.20;38.40;;;;;;5034101;28;20454;-86
2022/04/23 12:11:24;;;;;;;24.23;22.70;;;14.20;37.80;;;;;;5034095;28;20411;-85
2022/04/23 12:13:50;;;;;;;24.80;23.50;;;14.20;37.80;;;;;;5033714;28;20418;-85
2022/04/23 12:16:32;;;;;;;22.87;21.87;;;14.20;37.50;;;;;;5034074;28;20778;-85
2022/04/23 12:19:03;;;;;;;22.87;21.67;;;14.30;37.50;;;;;;5034023;28;20457;-85
2022/04/23 12:21:30;;;;;;;25.53;24.17;;;14.30;37.40;;;;;;5033891;28;20847;-86
2022/04/23 12:23:56;;;;;;;24.67;23.27;;;14.30;37.80;;;;;;5017527;28;20550;-86
2022/04/23 12:26:23;;;;;;;23.73;22.33;;;14.30;37.10;;;;;;5033993;28;20439;-85
2022/04/23 12:42:31;;;;;;;22.03;20.83;;;14.60;36.50;;;;;;5034684;28;20461;-85
2022/04/23 12:44:57;;;;;;;22.00;20.87;;;14.70;36.60;;;;;;5033046;28;20474;-84
2022/04/23 12:47:36;;;;;;;21.80;20.50;;;14.70;37.30;;;;;;5033610;28;20923;-86
2022/04/23 12:50:06;;;;;;;22.90;21.30;;;14.70;36.60;;;;;;5014518;28;20218;-85
2022/04/23 12:52:45;;;;;;;25.00;23.80;;;14.60;36.70;;;;;;5032498;28;20587;-87
2022/04/23 12:55:17;;;;;;;21.97;20.93;;;14.60;36.40;;;;;;5033036;28;20514;-86
2022/04/23 12:57:44;;;;;;;22.50;21.30;;;14.60;36.70;;;;;;5033582;28;20518;-87
2022/04/23 13:00:11;;;;;;;22.20;20.80;;;14.60;36.30;;;;;;5032775;28;20423;-86
2022/04/23 13:02:39;;;;;;;22.60;21.30;;;14.70;36.90;;;;;;5033467;28;20542;-87
2022/04/23 13:05:07;;;;;;;22.47;21.17;;;14.70;36.50;;;;;;5033079;28;20438;-87
2022/04/23 13:10:17;;;;;;;24.67;22.60;;;14.70;37.10;;;;;;5034722;28;20422;-86
2022/04/23 13:12:43;;;;;;;23.03;21.73;;;14.70;36.20;;;;;;5033740;28;20419;-77